Glasgo, Connecticut
Current Conditions -  °F | °C
As of 6:53 AM on Monday 22 Dec 2014 (Local Time) from KWST Reporting Station
Clear Clear  
Wind Chill: -3°   Ceiling: Unl
Heat Index:   Visibility: 10mi
Dew Point:   Wind: 8mph
Humidity: 92%   Direction: 30°NNE
Pressure: 30.35"   Gusts: NA
Location:  41.56°N, 71.89°W
Report Text: KWST 221153Z AUTO 03007KT 10SM CLR 01/00 A3035 RMK AO2 SLP277 T00110000 10022 20011 53008
Loading
Personal Weather Stations






























Interactive Weather Map New forecast layout! Learn more

10-Day Weather Forecast

Advertisements
Track Severe Weather on mobile